createdAt,value
2017-09-27T00:01:25.996Z,38.07
2017-09-27T00:03:53.288Z,35.70
2017-09-27T00:06:20.624Z,37.17
2017-09-27T00:08:47.969Z,37.50
2017-09-27T00:11:15.272Z,36.13
2017-09-27T00:13:42.588Z,37.37
2017-09-27T00:16:09.893Z,38.07
2017-09-27T00:18:37.200Z,36.27
2017-09-27T00:21:04.508Z,37.53
2017-09-27T00:23:31.844Z,36.87
2017-09-27T00:25:59.252Z,37.80
2017-09-27T00:28:26.573Z,38.23
2017-09-27T00:30:53.928Z,37.90
2017-09-27T00:33:21.517Z,34.73
2017-09-27T00:35:48.824Z,37.73
2017-09-27T00:38:16.112Z,36.23
2017-09-27T00:40:43.432Z,35.47
2017-09-27T00:43:10.737Z,38.50
2017-09-27T00:45:38.057Z,35.70
2017-09-27T00:48:06.361Z,36.10
2017-09-27T00:50:33.708Z,36.27
2017-09-27T00:53:01.327Z,39.13
2017-09-27T00:55:28.648Z,37.47
2017-09-27T00:57:55.958Z,39.10
2017-09-27T01:00:23.285Z,35.57
2017-09-27T01:02:50.593Z,40.57
2017-09-27T01:05:17.923Z,37.43
2017-09-27T01:07:45.228Z,39.67
2017-09-27T01:10:13.028Z,40.20
2017-09-27T01:12:40.352Z,38.20
2017-09-27T01:15:07.816Z,38.27
2017-09-27T01:17:35.137Z,38.83
2017-09-27T01:20:02.440Z,39.90
2017-09-27T01:22:29.764Z,40.80
2017-09-27T01:24:57.071Z,40.83
2017-09-27T01:27:24.391Z,38.50
2017-09-27T01:29:51.697Z,41.90
2017-09-27T01:32:19.041Z,42.60
2017-09-27T01:34:46.349Z,38.77
2017-09-27T01:37:13.688Z,38.77
2017-09-27T01:39:41.044Z,36.40
2017-09-27T01:42:08.364Z,39.67
2017-09-27T01:44:35.693Z,39.50
2017-09-27T01:47:03.965Z,39.50
2017-09-27T01:49:31.289Z,40.80
2017-09-27T01:51:58.598Z,40.50
2017-09-27T01:54:25.920Z,40.37
2017-09-27T01:56:53.228Z,43.30
2017-09-27T01:59:20.580Z,39.53
2017-09-27T02:01:47.916Z,40.27
2017-09-27T02:04:15.249Z,39.37
2017-09-27T02:06:42.561Z,39.50
2017-09-27T02:09:09.880Z,40.50
2017-09-27T02:11:37.243Z,36.87
2017-09-27T02:14:04.531Z,39.13
2017-09-27T02:16:31.868Z,38.90
2017-09-27T02:18:59.193Z,38.73
2017-09-27T02:21:26.523Z,40.07
2017-09-27T02:23:53.816Z,39.73
2017-09-27T02:26:21.132Z,38.90
2017-09-27T02:28:48.465Z,40.63
2017-09-27T02:31:15.822Z,41.77
2017-09-27T02:33:43.156Z,41.50
2017-09-27T02:36:10.536Z,39.67
2017-09-27T02:38:37.841Z,40.03
2017-09-27T02:41:05.163Z,38.13
2017-09-27T02:43:32.547Z,40.13
2017-09-27T02:45:59.851Z,39.20
2017-09-27T02:48:27.213Z,41.67
2017-09-27T02:50:54.532Z,38.80
2017-09-27T02:53:21.858Z,40.40
2017-09-27T02:55:49.164Z,38.60
2017-09-27T02:58:16.510Z,41.77
2017-09-27T03:00:43.804Z,40.20
2017-09-27T03:03:11.160Z,40.17
2017-09-27T03:05:38.476Z,39.77
2017-09-27T03:08:05.772Z,41.03
2017-09-27T03:10:33.096Z,41.23
2017-09-27T03:13:00.403Z,43.10
2017-09-27T03:15:27.762Z,43.20
2017-09-27T03:17:55.060Z,44.40
2017-09-27T03:20:22.389Z,42.07
2017-09-27T03:22:49.769Z,43.47
2017-09-27T03:25:17.459Z,42.20
2017-09-27T03:27:44.761Z,42.80
2017-09-27T03:30:12.117Z,40.77
2017-09-27T03:32:39.449Z,41.57
2017-09-27T03:35:06.821Z,42.90
2017-09-27T03:37:34.128Z,44.40
2017-09-27T03:40:01.443Z,42.33
2017-09-27T03:42:28.795Z,42.07
2017-09-27T03:44:56.093Z,42.50
2017-09-27T03:47:23.416Z,41.50
2017-09-27T03:49:50.728Z,41.93
2017-09-27T03:52:18.053Z,39.60
2017-09-27T03:54:45.368Z,41.00
2017-09-27T03:57:12.898Z,40.70
2017-09-27T03:59:40.210Z,41.13
2017-09-27T04:02:07.561Z,39.93
2017-09-27T04:04:34.885Z,43.40
2017-09-27T04:07:02.269Z,43.03
2017-09-27T04:09:29.573Z,40.07
2017-09-27T04:11:56.877Z,41.50
2017-09-27T04:14:24.195Z,39.50
2017-09-27T04:16:51.776Z,40.27
2017-09-27T04:19:19.128Z,37.70
2017-09-27T04:21:46.437Z,40.43
2017-09-27T04:24:14.092Z,38.00
2017-09-27T04:26:41.388Z,41.17
2017-09-27T04:29:08.704Z,40.10
2017-09-27T04:31:36.029Z,39.77
2017-09-27T04:34:03.416Z,39.93
2017-09-27T04:36:30.728Z,39.43
2017-09-27T04:38:58.054Z,38.70
2017-09-27T04:41:25.417Z,38.40
2017-09-27T04:43:52.789Z,36.60
2017-09-27T04:46:20.104Z,40.57
2017-09-27T04:48:47.424Z,39.23
2017-09-27T04:51:14.729Z,38.73
2017-09-27T04:53:42.052Z,39.37
2017-09-27T04:56:09.360Z,39.53
2017-09-27T04:58:37.084Z,39.13
2017-09-27T05:01:04.411Z,38.17
2017-09-27T05:03:31.720Z,37.83
2017-09-27T05:05:59.037Z,38.40
2017-09-27T05:08:26.372Z,39.17
2017-09-27T05:10:54.003Z,39.60
2017-09-27T05:13:21.358Z,40.80
2017-09-27T05:15:48.694Z,40.77
2017-09-27T05:18:16.044Z,40.63
2017-09-27T05:20:43.362Z,41.63
2017-09-27T05:23:10.673Z,42.30
2017-09-27T05:25:37.993Z,41.77
2017-09-27T05:28:05.304Z,41.60
2017-09-27T05:30:32.649Z,41.10
2017-09-27T05:32:59.968Z,42.77
2017-09-27T05:35:27.336Z,43.60
2017-09-27T05:37:54.655Z,43.90
2017-09-27T05:40:22.010Z,44.87
2017-09-27T05:42:49.334Z,45.20
2017-09-27T05:45:16.749Z,42.80
2017-09-27T05:47:44.071Z,41.97
2017-09-27T05:50:11.375Z,42.90
2017-09-27T05:52:38.717Z,42.70
2017-09-27T05:55:06.045Z,43.07
2017-09-27T05:57:33.406Z,43.00
2017-09-27T06:00:00.717Z,42.80
2017-09-27T06:02:28.119Z,42.00
2017-09-27T06:04:55.425Z,42.47
2017-09-27T06:07:23.404Z,40.83
2017-09-27T06:09:50.963Z,41.57
2017-09-27T06:12:18.437Z,43.90
2017-09-27T06:14:45.775Z,42.57
2017-09-27T06:17:13.162Z,43.37
2017-09-27T06:19:40.621Z,43.87
2017-09-27T06:22:08.044Z,43.40
2017-09-27T06:24:35.594Z,41.70
2017-09-27T06:27:03.011Z,41.37
2017-09-27T06:29:30.398Z,41.30
2017-09-27T06:31:57.710Z,43.10
2017-09-27T06:34:25.356Z,40.20
2017-09-27T06:36:52.698Z,42.30
2017-09-27T06:39:20.369Z,40.27
2017-09-27T06:41:48.690Z,41.13
2017-09-27T06:44:15.940Z,41.40
2017-09-27T06:46:43.294Z,41.93
2017-09-27T06:49:10.620Z,40.50
2017-09-27T06:51:38.018Z,39.70
2017-09-27T06:54:05.328Z,42.77
2017-09-27T06:56:34.506Z,41.33
2017-09-27T06:59:01.853Z,39.70
2017-09-27T07:01:29.188Z,40.63
2017-09-27T07:03:56.524Z,40.10
2017-09-27T07:06:23.861Z,40.47
2017-09-27T07:08:51.195Z,40.77
2017-09-27T07:11:18.638Z,38.40
2017-09-27T07:13:46.013Z,39.43
2017-09-27T07:16:13.321Z,38.53
2017-09-27T07:18:40.689Z,40.03
2017-09-27T07:21:08.001Z,40.13
2017-09-27T07:23:35.321Z,40.83
2017-09-27T07:26:02.621Z,40.53
2017-09-27T07:28:29.944Z,40.33
2017-09-27T07:30:57.260Z,39.50
2017-09-27T07:33:24.609Z,42.13
2017-09-27T07:35:52.054Z,40.10
2017-09-27T07:38:19.694Z,40.33
2017-09-27T07:40:47.269Z,40.73
2017-09-27T07:43:14.633Z,40.50
2017-09-27T07:45:41.958Z,42.37
2017-09-27T07:48:09.272Z,40.07
2017-09-27T07:50:36.955Z,40.57
2017-09-27T07:53:04.260Z,39.97
2017-09-27T07:55:31.654Z,40.87
2017-09-27T07:57:58.953Z,41.83
2017-09-27T08:00:26.308Z,40.63
2017-09-27T08:02:53.617Z,38.60
2017-09-27T08:05:21.109Z,40.93
2017-09-27T08:07:48.817Z,40.90
2017-09-27T08:10:16.123Z,41.27
2017-09-27T08:12:43.451Z,41.57
2017-09-27T08:15:10.749Z,41.87
2017-09-27T08:17:38.154Z,42.40
2017-09-27T08:20:05.477Z,42.63
2017-09-27T08:22:32.826Z,43.53
2017-09-27T08:25:00.125Z,43.43
2017-09-27T08:27:27.461Z,43.97
2017-09-27T08:29:54.793Z,43.90
2017-09-27T08:32:22.164Z,43.77
2017-09-27T08:34:49.473Z,43.83
2017-09-27T08:37:16.816Z,44.13
2017-09-27T08:39:45.098Z,45.60
2017-09-27T08:42:12.478Z,45.30
2017-09-27T08:44:39.808Z,44.40
2017-09-27T08:47:07.118Z,45.80
2017-09-27T08:49:34.462Z,45.07
2017-09-27T08:52:01.777Z,44.23
2017-09-27T08:54:29.148Z,46.97
2017-09-27T08:56:56.470Z,46.60
2017-09-27T08:59:23.834Z,43.73
2017-09-27T09:01:51.158Z,43.83
2017-09-27T09:04:18.966Z,44.70
2017-09-27T09:06:46.339Z,44.23
2017-09-27T09:09:13.764Z,45.20
2017-09-27T09:11:41.094Z,44.33
2017-09-27T09:14:08.402Z,44.40
2017-09-27T09:16:35.734Z,45.93
2017-09-27T09:19:03.050Z,43.57
2017-09-27T09:21:30.408Z,44.60
2017-09-27T09:23:58.034Z,43.60
2017-09-27T09:26:25.390Z,45.30
2017-09-27T09:28:52.728Z,44.57
2017-09-27T09:31:20.063Z,44.10
2017-09-27T09:33:47.618Z,44.23
2017-09-27T09:36:14.945Z,45.47
2017-09-27T09:38:42.301Z,43.10
2017-09-27T09:41:09.634Z,43.23
2017-09-27T09:43:36.977Z,43.57
2017-09-27T09:46:04.310Z,42.03
2017-09-27T09:48:31.776Z,45.73
2017-09-27T09:50:59.081Z,43.97
2017-09-27T09:53:26.429Z,42.90
2017-09-27T09:55:53.755Z,42.53
2017-09-27T09:58:21.063Z,41.57
2017-09-27T10:00:48.385Z,43.10
2017-09-27T10:03:15.916Z,42.63
2017-09-27T10:05:43.901Z,41.07
2017-09-27T10:08:11.706Z,43.87
2017-09-27T10:10:39.264Z,41.80
2017-09-27T10:13:06.855Z,43.10
2017-09-27T10:15:34.291Z,42.10
2017-09-27T10:18:01.654Z,41.43
2017-09-27T10:20:29.276Z,41.17
2017-09-27T10:22:56.609Z,40.77
2017-09-27T10:25:23.930Z,42.13
2017-09-27T10:27:51.280Z,38.83
2017-09-27T10:30:18.593Z,41.00
2017-09-27T10:32:45.926Z,38.43
2017-09-27T10:35:13.233Z,39.30
2017-09-27T10:37:40.863Z,37.57
2017-09-27T10:40:08.176Z,37.67
2017-09-27T10:42:35.532Z,36.60
2017-09-27T10:45:02.866Z,37.87
2017-09-27T10:47:30.253Z,35.90
2017-09-27T10:49:57.549Z,36.10
2017-09-27T10:52:24.921Z,36.47
2017-09-27T10:54:52.340Z,35.33
2017-09-27T10:57:19.665Z,33.73
2017-09-27T10:59:47.621Z,35.20
2017-09-27T11:02:14.954Z,33.07
2017-09-27T11:04:42.330Z,32.47
2017-09-27T11:07:09.645Z,30.20
2017-09-27T11:09:37.008Z,31.37
2017-09-27T11:12:04.353Z,30.10
2017-09-27T11:14:31.689Z,29.00
2017-09-27T11:16:59.018Z,29.30
2017-09-27T11:19:26.388Z,30.43
2017-09-27T11:21:53.697Z,29.67
2017-09-27T11:24:21.026Z,28.23
2017-09-27T11:26:48.519Z,28.20
2017-09-27T11:29:15.820Z,29.27
2017-09-27T11:31:43.405Z,27.03
2017-09-27T11:34:10.725Z,27.00
2017-09-27T11:36:38.066Z,26.80
2017-09-27T11:39:05.373Z,25.00
2017-09-27T11:41:32.697Z,24.10
2017-09-27T11:44:00.073Z,25.67
2017-09-27T11:46:27.413Z,22.33
2017-09-27T11:48:54.749Z,23.00
2017-09-27T11:51:22.065Z,22.80
2017-09-27T11:53:49.393Z,22.87
2017-09-27T11:56:16.708Z,22.97
2017-09-27T11:58:44.146Z,22.60
2017-09-27T12:01:11.470Z,22.90
2017-09-27T12:03:38.826Z,20.63
2017-09-27T12:06:06.192Z,20.80
2017-09-27T12:08:33.520Z,20.30
2017-09-27T12:11:00.820Z,21.27
2017-09-27T12:13:28.188Z,20.33
2017-09-27T12:15:55.553Z,21.50
2017-09-27T12:18:22.897Z,20.53
2017-09-27T12:20:50.400Z,21.30
2017-09-27T12:23:17.945Z,21.60
2017-09-27T12:25:45.314Z,20.93
2017-09-27T12:28:12.634Z,21.00
2017-09-27T12:30:39.979Z,20.97
2017-09-27T12:33:07.322Z,21.47
2017-09-27T12:35:35.003Z,20.93
2017-09-27T12:38:02.382Z,21.03
2017-09-27T12:40:29.809Z,20.93
2017-09-27T12:42:57.280Z,20.30
2017-09-27T12:45:24.597Z,19.47
2017-09-27T12:47:51.911Z,20.80
2017-09-27T12:50:19.257Z,20.03
2017-09-27T12:52:46.577Z,19.67
2017-09-27T12:55:13.885Z,20.10
2017-09-27T12:57:41.245Z,20.60
2017-09-27T13:00:08.553Z,19.73
2017-09-27T13:02:35.879Z,20.53
2017-09-27T13:05:03.197Z,22.10
2017-09-27T13:07:30.557Z,21.10
2017-09-27T13:09:57.874Z,22.13
2017-09-27T13:12:25.209Z,21.73
2017-09-27T13:14:52.513Z,21.57
2017-09-27T13:17:19.873Z,22.20
2017-09-27T13:19:47.189Z,21.23
2017-09-27T13:22:14.509Z,21.17
2017-09-27T13:24:41.813Z,21.90
2017-09-27T13:27:09.136Z,20.33
2017-09-27T13:29:36.465Z,21.67
2017-09-27T13:32:03.809Z,20.43
2017-09-27T13:34:31.137Z,19.80
2017-09-27T13:36:58.477Z,19.53
2017-09-27T13:39:25.941Z,21.00
2017-09-27T13:41:53.341Z,20.10
2017-09-27T13:44:20.661Z,20.83
2017-09-27T13:46:48.040Z,20.70
2017-09-27T13:49:15.370Z,21.60
2017-09-27T13:51:42.680Z,20.50
2017-09-27T13:54:09.997Z,19.87
2017-09-27T13:56:37.357Z,21.13
2017-09-27T13:59:04.682Z,20.57
2017-09-27T14:01:32.033Z,19.73
2017-09-27T14:03:59.357Z,20.10
2017-09-27T14:06:26.677Z,19.40
2017-09-27T14:08:54.069Z,19.50
2017-09-27T14:11:21.389Z,19.97
2017-09-27T14:13:48.702Z,19.20
2017-09-27T14:16:16.073Z,19.00
2017-09-27T14:18:43.701Z,20.37
2017-09-27T14:21:11.029Z,19.57
2017-09-27T14:23:38.377Z,19.30
2017-09-27T14:26:05.756Z,18.00
2017-09-27T14:28:33.070Z,17.10
2017-09-27T14:31:00.449Z,17.30
2017-09-27T14:33:27.798Z,16.23
2017-09-27T14:35:55.141Z,17.00
2017-09-27T14:38:22.617Z,16.50
2017-09-27T14:40:50.005Z,18.17
2017-09-27T14:43:17.300Z,17.97
2017-09-27T14:45:44.662Z,17.80
2017-09-27T14:48:11.971Z,17.77
2017-09-27T14:50:39.281Z,18.73
2017-09-27T14:53:06.625Z,18.80
2017-09-27T14:55:33.944Z,18.73
2017-09-27T14:58:01.274Z,18.30
2017-09-27T15:00:28.594Z,19.40
2017-09-27T15:02:56.737Z,23.20
2017-09-27T15:05:24.045Z,18.93
2017-09-27T15:07:51.570Z,19.33
2017-09-27T15:10:18.916Z,18.03
2017-09-27T15:12:46.257Z,18.97
2017-09-27T15:15:13.567Z,18.03
2017-09-27T15:17:41.315Z,18.80
2017-09-27T15:20:08.641Z,18.30
2017-09-27T15:22:35.981Z,18.60
2017-09-27T15:25:03.309Z,18.87
2017-09-27T15:27:30.641Z,19.60
2017-09-27T15:29:57.985Z,18.60
2017-09-27T15:32:25.293Z,18.67
2017-09-27T15:34:52.722Z,18.70
2017-09-27T15:37:20.069Z,18.47
2017-09-27T15:39:47.429Z,19.47
2017-09-27T15:42:14.742Z,18.97
2017-09-27T15:44:42.117Z,19.47
2017-09-27T15:47:09.439Z,18.90
2017-09-27T15:49:36.813Z,19.10
2017-09-27T15:52:04.130Z,19.07
2017-09-27T15:54:31.523Z,19.50
2017-09-27T15:56:58.830Z,18.63
2017-09-27T15:59:26.149Z,18.60
2017-09-27T16:01:53.466Z,18.67
2017-09-27T16:04:20.774Z,18.30
2017-09-27T16:06:48.098Z,18.77
2017-09-27T16:09:15.413Z,17.93
2017-09-27T16:11:42.761Z,17.53
2017-09-27T16:14:10.078Z,18.80
2017-09-27T16:16:37.413Z,18.20
2017-09-27T16:19:04.752Z,18.93
2017-09-27T16:21:32.093Z,19.10
2017-09-27T16:23:59.415Z,20.53
2017-09-27T16:26:27.081Z,21.40
2017-09-27T16:28:54.409Z,21.30
2017-09-27T16:31:21.777Z,20.57
2017-09-27T16:33:49.114Z,21.20
2017-09-27T16:36:16.472Z,21.20
2017-09-27T16:38:43.822Z,19.73
2017-09-27T16:41:11.150Z,19.97
2017-09-27T16:43:39.705Z,20.37
2017-09-27T16:46:07.034Z,20.77
2017-09-27T16:48:34.388Z,19.20
2017-09-27T16:51:01.713Z,20.83
2017-09-27T16:53:29.080Z,19.27
2017-09-27T16:55:56.394Z,20.17
2017-09-27T16:58:23.756Z,19.80
2017-09-27T17:00:51.080Z,20.40
2017-09-27T17:03:18.447Z,19.80
2017-09-27T17:05:45.773Z,19.80
2017-09-27T17:08:13.099Z,18.63
2017-09-27T17:10:40.417Z,19.30
2017-09-27T17:13:07.761Z,19.07
2017-09-27T17:15:35.073Z,18.27
2017-09-27T17:18:02.418Z,18.80
2017-09-27T17:20:29.749Z,19.10
2017-09-27T17:22:57.057Z,19.80
2017-09-27T17:25:24.392Z,17.83
2017-09-27T17:27:51.723Z,19.27
2017-09-27T17:30:19.043Z,17.97
2017-09-27T17:32:46.363Z,18.60
2017-09-27T17:35:13.681Z,18.00
2017-09-27T17:37:40.993Z,18.83
2017-09-27T17:40:08.312Z,18.50
2017-09-27T17:42:35.649Z,18.17
2017-09-27T17:45:02.953Z,20.10
2017-09-27T17:47:30.554Z,19.40
2017-09-27T17:49:57.902Z,19.20
2017-09-27T17:52:25.272Z,18.97
2017-09-27T17:54:52.897Z,19.50
2017-09-27T17:57:20.251Z,19.87
2017-09-27T17:59:47.561Z,19.53
2017-09-27T18:02:14.882Z,18.90
2017-09-27T18:04:47.979Z,19.13
2017-09-27T18:07:30.966Z,20.27
2017-09-27T18:10:14.007Z,20.70
2017-09-27T18:12:50.134Z,20.00
2017-09-27T18:15:23.309Z,18.67
2017-09-27T18:17:51.405Z,17.97
2017-09-27T18:20:18.726Z,18.73
2017-09-27T18:22:46.042Z,19.30
2017-09-27T18:25:13.366Z,18.63
2017-09-27T18:27:40.693Z,19.33
2017-09-27T18:30:08.011Z,19.33
2017-09-27T18:32:35.386Z,18.57
2017-09-27T18:35:03.589Z,20.13
2017-09-27T18:37:30.949Z,19.50
2017-09-27T18:39:58.269Z,18.60
2017-09-27T18:42:25.595Z,18.50
2017-09-27T18:44:52.906Z,17.40
2017-09-27T18:47:20.229Z,18.50
2017-09-27T18:49:48.779Z,19.43
2017-09-27T18:52:16.091Z,18.50
2017-09-27T18:54:43.405Z,18.03
2017-09-27T18:57:10.726Z,18.77
2017-09-27T18:59:38.034Z,18.97
2017-09-27T19:02:05.417Z,17.47
2017-09-27T19:04:32.733Z,17.97
2017-09-27T19:07:00.057Z,19.27
2017-09-27T19:09:27.410Z,18.70
2017-09-27T19:11:54.736Z,19.57
2017-09-27T19:14:22.067Z,19.27
2017-09-27T19:16:49.365Z,18.80
2017-09-27T19:19:16.689Z,18.57
2017-09-27T19:21:44.913Z,19.10
2017-09-27T19:24:12.237Z,19.30
2017-09-27T19:26:39.541Z,18.63
2017-09-27T19:29:06.921Z,19.70
2017-09-27T19:31:35.208Z,18.63
2017-09-27T19:34:02.858Z,20.10
2017-09-27T19:36:30.510Z,18.83
2017-09-27T19:38:57.886Z,18.30
2017-09-27T19:41:25.191Z,19.40
2017-09-27T19:43:52.526Z,19.60
2017-09-27T19:46:19.860Z,19.00
2017-09-27T19:48:47.160Z,19.30
2017-09-27T19:51:14.507Z,20.03
2017-09-27T19:53:41.797Z,19.73
2017-09-27T19:56:10.073Z,20.33
2017-09-27T19:58:37.377Z,19.63
2017-09-27T20:01:04.779Z,19.17
2017-09-27T20:03:32.126Z,19.80
2017-09-27T20:05:59.440Z,20.43
2017-09-27T20:08:27.054Z,20.40
2017-09-27T20:10:54.379Z,19.60
2017-09-27T20:13:21.702Z,19.33
2017-09-27T20:15:49.034Z,19.73
2017-09-27T20:18:16.359Z,20.70
2017-09-27T20:20:43.664Z,19.90
2017-09-27T20:23:10.996Z,20.30
2017-09-27T20:25:39.273Z,20.17
2017-09-27T20:28:06.597Z,20.60
2017-09-27T20:30:33.917Z,20.37
2017-09-27T20:33:01.245Z,20.47
2017-09-27T20:35:28.558Z,19.30
2017-09-27T20:37:55.897Z,19.80
2017-09-27T20:40:23.193Z,19.23
2017-09-27T22:04:47.445Z,18.87
2017-09-27T22:07:14.770Z,20.23
2017-09-27T22:09:42.085Z,20.23
2017-09-27T22:12:09.418Z,20.60
2017-09-27T22:14:36.761Z,19.17
2017-09-27T22:17:04.113Z,20.93
2017-09-27T22:19:31.441Z,19.67
2017-09-27T22:21:58.913Z,20.70
2017-09-27T22:24:26.222Z,19.67
2017-09-27T22:26:53.557Z,20.47
2017-09-27T22:29:20.888Z,19.30
2017-09-27T22:31:48.238Z,20.00
2017-09-27T22:34:15.566Z,19.87
2017-09-27T22:36:42.875Z,21.50
2017-09-27T22:39:10.201Z,20.20
2017-09-27T22:41:37.510Z,20.70
2017-09-27T22:44:04.825Z,20.80
2017-09-27T22:46:32.130Z,20.00
2017-09-27T22:48:59.461Z,20.47
2017-09-27T22:51:26.770Z,21.40
2017-09-27T22:53:54.137Z,21.03
2017-09-27T22:56:21.452Z,19.47
2017-09-27T22:58:48.842Z,19.97
2017-09-27T23:01:16.141Z,20.50
2017-09-27T23:03:43.476Z,21.53
2017-09-27T23:06:10.798Z,19.13
2017-09-27T23:08:38.161Z,21.63
2017-09-27T23:11:05.518Z,20.37
2017-09-27T23:13:32.841Z,20.53
2017-09-27T23:16:00.157Z,20.93
2017-09-27T23:18:27.477Z,19.40
2017-09-27T23:20:54.806Z,20.60
2017-09-27T23:23:22.102Z,20.20
2017-09-27T23:25:49.491Z,20.30
2017-09-27T23:28:16.789Z,19.17
2017-09-27T23:30:44.191Z,19.73
2017-09-27T23:33:11.494Z,20.23
2017-09-27T23:35:38.805Z,20.40
2017-09-27T23:38:06.129Z,20.27
2017-09-27T23:40:33.429Z,19.80
2017-09-27T23:43:00.752Z,20.50
2017-09-27T23:45:28.069Z,19.40
2017-09-27T23:47:55.389Z,20.17
2017-09-27T23:50:22.693Z,20.33
2017-09-27T23:52:50.025Z,19.80
2017-09-27T23:55:17.660Z,20.07
2017-09-27T23:57:45.021Z,20.20
